Berlin, MA (01503)

4:30 AM EST on December 04, 2016 (GMT -0500)
| | Change Station

Elev -9999 ft 0.00 °N, 0.00 °E | Updated

Clear
Clear
28 °F
Feels Like 22 °F
N
6
Wind Variable Wind from NW
Gusts mph

Today
High -- | Low -- °F
--% Chance of Precip.
Yesterday
High -- | Low -- °F
Precip. -- in
Pressure 30.14 in
Visibility 10.0 miles
Clouds Overcast 3900 ft
Windchill 22 °F
Dew Point 18 °F
Humidity 66%
Rainfall --
Snow Depth Not available.
6:59 AM 4:14 PM
Waxing Crescent, 21% visible
METAR KFIT 040852Z AUTO 32007KT 10SM OVC039 02/M07 A3013 RMK AO2 SLP207 T00171072 51014
Pressure 30.14 in
Visibility 10.0 miles
Clouds Overcast 3900 ft
Windchill 22 °F
Dew Point 18 °F
Humidity 66%
Rainfall --
Snow Depth Not available.
6:59 AM 4:14 PM
Waxing Crescent, 21% visible
METAR KFIT 040852Z AUTO 32007KT 10SM OVC039 02/M07 A3013 RMK AO2 SLP207 T00171072 51014

10-Day Weather Forecast

Almanac

Astronomy

Dec. 04, 2016 Rise Set
Actual Time
Civil Twilight
Nautical Twilight
Astronomical Twilight
Moon
Length of Visible Light
Length of Day
Tomorrow will be .
, % of the Moon is Illuminated

Today's Extremes

State Highs State Lows

Community

WunderPhotos

Upload Photos

1,955,587 photos uploaded!

WunderBlog® & News

Nearby

Air Quality

  Air Quality AQ Index Pollutant
Not available.

Snow Depth

Station Depth Elevation

Earthquake Activity

City Distance Mag. Time & Date
Minimum magnitude displayed is 2.5.

Coastal Water Temperatures

Place Temperature

Stations

Nearby Weather Stations

Station Location Temp. Windchill Dew Point Humidity Wind Precip. Elev Updated Type
                   

Watches & Warnings

There are currently no watches in effect.